createdAt,value
2017-04-24T00:00:18.065Z,3.95
2017-04-24T00:01:16.716Z,3.98
2017-04-24T00:02:15.357Z,4.42
2017-04-24T00:03:13.928Z,4.62
2017-04-24T00:04:12.528Z,3.83
2017-04-24T00:05:11.107Z,3.37
2017-04-24T00:06:09.661Z,4.00
2017-04-24T00:07:08.186Z,4.37
2017-04-24T00:08:06.791Z,4.18
2017-04-24T00:09:06.151Z,4.33
2017-04-24T00:10:04.783Z,4.53
2017-04-24T00:11:03.383Z,4.77
2017-04-24T00:12:02.064Z,4.48
2017-04-24T00:13:00.980Z,4.32
2017-04-24T00:13:59.538Z,4.50
2017-04-24T00:14:58.055Z,3.88
2017-04-24T00:15:56.629Z,5.27
2017-04-24T00:16:55.225Z,4.37
2017-04-24T00:17:54.665Z,4.63
2017-04-24T00:18:53.227Z,4.35
2017-04-24T00:19:51.833Z,3.87
2017-04-24T00:20:50.778Z,4.00
2017-04-24T00:21:49.334Z,3.22
2017-04-24T00:22:47.909Z,4.15
2017-04-24T00:23:46.436Z,4.00
2017-04-24T00:24:45.016Z,4.02
2017-04-24T00:25:43.543Z,4.50
2017-04-24T00:26:42.072Z,4.70
2017-04-24T00:27:40.631Z,4.33
2017-04-24T00:28:39.237Z,4.08
2017-04-24T00:29:37.768Z,4.15
2017-04-24T00:30:36.347Z,4.40
2017-04-24T00:31:34.856Z,4.12
2017-04-24T00:32:33.939Z,4.32
2017-04-24T00:33:32.900Z,4.50
2017-04-24T00:34:31.899Z,3.93
2017-04-24T00:35:30.388Z,4.78
2017-04-24T00:36:28.886Z,4.97
2017-04-24T00:37:27.383Z,5.10
2017-04-24T00:38:26.303Z,4.78
2017-04-24T00:39:24.872Z,4.58
2017-04-24T00:40:23.368Z,4.73
2017-04-24T00:41:22.330Z,4.93
2017-04-24T00:42:20.855Z,5.05
2017-04-24T00:43:19.393Z,4.52
2017-04-24T00:44:17.946Z,5.13
2017-04-24T00:45:16.475Z,3.55
2017-04-24T00:46:14.955Z,4.17
2017-04-24T00:47:13.841Z,4.45
2017-04-24T00:48:12.780Z,4.13
2017-04-24T00:49:11.325Z,4.93
2017-04-24T00:50:09.885Z,4.37
2017-04-24T00:51:08.622Z,4.87
2017-04-24T00:52:07.137Z,5.12
2017-04-24T00:53:05.748Z,4.95
2017-04-24T00:54:04.286Z,4.95
2017-04-24T00:55:02.781Z,4.93
2017-04-24T00:56:01.300Z,5.02
2017-04-24T00:56:59.864Z,4.55
2017-04-24T00:57:58.434Z,4.12
2017-04-24T00:58:56.963Z,4.15
2017-04-24T00:59:55.537Z,4.23
2017-04-24T01:00:54.049Z,4.48
2017-04-24T01:01:52.626Z,4.35
2017-04-24T01:02:51.160Z,4.43
2017-04-24T01:03:49.698Z,5.08
2017-04-24T01:04:48.253Z,4.47
2017-04-24T01:05:47.206Z,4.32
2017-04-24T01:06:45.756Z,3.92
2017-04-24T01:07:44.317Z,4.97
2017-04-24T01:08:42.838Z,4.85
2017-04-24T01:09:41.800Z,4.60
2017-04-24T01:10:40.325Z,4.67
2017-04-24T01:11:38.843Z,4.47
2017-04-24T01:12:37.452Z,4.70
2017-04-24T01:13:35.947Z,4.72
2017-04-24T01:14:34.908Z,5.02
2017-04-24T01:15:33.881Z,5.00
2017-04-24T01:16:32.395Z,4.83
2017-04-24T01:17:30.945Z,4.68
2017-04-24T01:18:29.493Z,4.70
2017-04-24T01:19:28.087Z,5.55
2017-04-24T01:20:26.715Z,4.98
2017-04-24T01:21:25.233Z,5.38
2017-04-24T01:22:23.816Z,5.97
2017-04-24T01:23:22.372Z,5.43
2017-04-24T01:24:20.935Z,5.82
2017-04-24T01:25:19.546Z,4.83
2017-04-24T01:26:18.452Z,4.47
2017-04-24T01:27:16.978Z,4.12
2017-04-24T01:28:15.904Z,4.97
2017-04-24T01:29:14.437Z,4.65
2017-04-24T01:30:13.004Z,5.12
2017-04-24T01:31:11.510Z,4.77
2017-04-24T01:32:10.105Z,5.42
2017-04-24T01:33:09.134Z,5.48
2017-04-24T01:34:07.718Z,5.30
2017-04-24T01:35:06.322Z,5.55
2017-04-24T01:36:04.866Z,5.18
2017-04-24T01:37:03.402Z,5.27
2017-04-24T01:38:01.927Z,5.17
2017-04-24T01:39:00.593Z,4.75
2017-04-24T01:39:59.143Z,4.33
2017-04-24T01:40:57.676Z,5.03
2017-04-24T01:41:56.249Z,4.40
2017-04-24T01:42:54.741Z,5.15
2017-04-24T01:43:53.270Z,4.53
2017-04-24T01:44:51.882Z,3.75
2017-04-24T01:45:50.479Z,4.58
2017-04-24T01:46:48.977Z,4.72
2017-04-24T01:47:47.484Z,5.32
2017-04-24T01:48:46.016Z,5.12
2017-04-24T01:49:44.553Z,4.87
2017-04-24T01:50:43.135Z,5.02
2017-04-24T01:51:41.691Z,5.50
2017-04-24T01:52:40.247Z,5.05
2017-04-24T01:53:39.146Z,5.72
2017-04-24T01:54:38.065Z,5.65
2017-04-24T01:55:36.582Z,5.48
2017-04-24T01:56:35.071Z,5.52
2017-04-24T01:57:33.595Z,6.27
2017-04-24T01:58:32.116Z,5.57
2017-04-24T01:59:30.697Z,5.87
2017-04-24T02:00:29.624Z,4.92
2017-04-24T02:01:28.118Z,5.20
2017-04-24T02:02:26.621Z,5.27
2017-04-24T02:03:25.125Z,5.00
2017-04-24T02:04:23.640Z,4.20
2017-04-24T02:05:22.227Z,4.92
2017-04-24T02:06:20.732Z,5.10
2017-04-24T02:07:19.301Z,5.35
2017-04-24T02:08:17.818Z,5.55
2017-04-24T02:09:16.375Z,4.82
2017-04-24T02:10:14.911Z,5.33
2017-04-24T02:11:13.845Z,5.58
2017-04-24T02:12:12.378Z,5.02
2017-04-24T02:13:10.914Z,6.05
2017-04-24T02:14:09.853Z,4.97
2017-04-24T02:15:08.391Z,5.63
2017-04-24T02:16:06.965Z,5.90
2017-04-24T02:17:05.517Z,6.33
2017-04-24T02:18:04.463Z,5.32
2017-04-24T02:19:03.381Z,7.02
2017-04-24T02:20:01.948Z,5.83
2017-04-24T02:21:00.594Z,4.62
2017-04-24T02:21:59.113Z,5.22
2017-04-24T02:22:57.672Z,5.38
2017-04-24T02:23:56.212Z,4.93
2017-04-24T02:24:54.705Z,5.65
2017-04-24T02:25:53.215Z,5.63
2017-04-24T02:26:51.720Z,5.82
2017-04-24T02:27:50.389Z,5.43
2017-04-24T02:28:49.267Z,6.67
2017-04-24T02:29:47.884Z,5.42
2017-04-24T02:30:46.416Z,5.62
2017-04-24T02:31:45.082Z,5.43
2017-04-24T02:32:43.625Z,5.80
2017-04-24T02:33:42.140Z,5.60
2017-04-24T02:34:41.147Z,5.53
2017-04-24T02:35:40.108Z,5.73
2017-04-24T02:36:38.663Z,5.47
2017-04-24T02:37:37.255Z,6.13
2017-04-24T02:38:35.764Z,6.20
2017-04-24T02:39:34.301Z,6.32
2017-04-24T02:40:32.816Z,6.58
2017-04-24T02:41:31.411Z,5.93
2017-04-24T02:42:29.976Z,6.35
2017-04-24T02:43:28.898Z,6.87
2017-04-24T02:44:27.711Z,6.10
2017-04-24T02:45:26.295Z,5.72
2017-04-24T02:46:24.813Z,6.48
2017-04-24T02:47:23.746Z,5.35
2017-04-24T02:48:22.671Z,6.27
2017-04-24T02:49:21.260Z,5.43
2017-04-24T02:50:20.031Z,6.18
2017-04-24T02:51:18.805Z,6.03
2017-04-24T02:52:17.313Z,5.05
2017-04-24T02:53:15.850Z,5.20
2017-04-24T02:54:14.328Z,6.22
2017-04-24T02:55:12.864Z,6.15
2017-04-24T02:56:11.677Z,5.77
2017-04-24T02:57:10.208Z,6.52
2017-04-24T02:58:08.759Z,5.28
2017-04-24T02:59:07.293Z,6.55
2017-04-24T03:00:06.280Z,6.88
2017-04-24T03:01:04.801Z,6.48
2017-04-24T03:02:04.071Z,6.53
2017-04-24T03:03:02.710Z,6.00
2017-04-24T03:04:01.259Z,6.50
2017-04-24T03:04:59.784Z,6.50
2017-04-24T03:05:58.316Z,6.18
2017-04-24T03:06:57.242Z,6.45
2017-04-24T03:07:56.097Z,5.63
2017-04-24T03:08:55.077Z,6.80
2017-04-24T03:09:54.004Z,6.20
2017-04-24T03:10:52.559Z,6.45
2017-04-24T03:11:51.096Z,5.70
2017-04-24T03:12:49.604Z,6.50
2017-04-24T03:13:48.394Z,7.03
2017-04-24T03:14:46.923Z,6.20
2017-04-24T03:15:45.846Z,6.65
2017-04-24T03:16:44.468Z,6.33
2017-04-24T03:17:42.997Z,6.63
2017-04-24T03:18:41.516Z,6.05
2017-04-24T03:19:40.372Z,6.22
2017-04-24T03:20:38.917Z,6.03
2017-04-24T03:21:37.429Z,6.83
2017-04-24T03:22:35.961Z,6.08
2017-04-24T03:23:34.486Z,6.07
2017-04-24T03:24:33.049Z,6.52
2017-04-24T03:25:31.925Z,5.53
2017-04-24T03:26:30.449Z,6.15
2017-04-24T03:27:28.996Z,5.73
2017-04-24T03:28:27.505Z,6.58
2017-04-24T03:29:26.025Z,5.77
2017-04-24T03:30:24.579Z,6.18
2017-04-24T03:31:23.386Z,6.00
2017-04-24T03:32:21.893Z,5.57
2017-04-24T03:33:20.465Z,5.93
2017-04-24T03:34:18.965Z,5.68
2017-04-24T03:35:17.513Z,6.42
2017-04-24T03:36:16.085Z,5.78
2017-04-24T03:37:14.986Z,6.18
2017-04-24T03:38:14.006Z,5.68
2017-04-24T03:39:12.556Z,5.67
2017-04-24T03:40:11.106Z,5.47
2017-04-24T03:41:09.642Z,6.15
2017-04-24T03:42:08.473Z,6.40
2017-04-24T03:43:07.238Z,5.70
2017-04-24T03:44:05.781Z,5.68
2017-04-24T03:45:04.345Z,5.57
2017-04-24T03:46:03.339Z,5.20
2017-04-24T03:47:02.129Z,4.95
2017-04-24T03:48:01.047Z,6.37
2017-04-24T03:48:59.641Z,6.43
2017-04-24T03:49:58.558Z,5.55
2017-04-24T03:50:57.500Z,5.33
2017-04-24T03:51:56.031Z,6.08
2017-04-24T03:52:54.584Z,5.62
2017-04-24T03:53:53.114Z,6.08
2017-04-24T03:54:51.939Z,6.05
2017-04-24T03:55:50.542Z,6.98
2017-04-24T03:56:49.084Z,6.60
2017-04-24T03:57:47.658Z,5.90
2017-04-24T03:58:46.206Z,6.53
2017-04-24T03:59:44.731Z,6.37
2017-04-24T04:00:43.563Z,5.83
2017-04-24T04:01:42.196Z,6.52
2017-04-24T04:02:40.726Z,6.25
2017-04-24T04:03:39.337Z,7.02
2017-04-24T04:04:37.972Z,7.42
2017-04-24T04:05:36.502Z,6.57
2017-04-24T04:06:35.429Z,5.95
2017-04-24T04:07:34.367Z,6.78
2017-04-24T04:08:32.972Z,6.45
2017-04-24T04:09:31.893Z,6.52
2017-04-24T04:10:30.413Z,7.35
2017-04-24T04:11:29.352Z,7.13
2017-04-24T04:12:28.065Z,6.75
2017-04-24T04:13:26.600Z,7.45
2017-04-24T04:14:25.111Z,5.45
2017-04-24T04:15:24.046Z,6.35
2017-04-24T04:16:22.961Z,7.00
2017-04-24T04:17:21.516Z,7.53
2017-04-24T04:18:20.766Z,6.07
2017-04-24T04:19:19.860Z,6.73
2017-04-24T04:20:18.480Z,7.03
2017-04-24T04:21:17.064Z,6.55
2017-04-24T04:22:15.670Z,6.95
2017-04-24T04:23:14.216Z,7.42
2017-04-24T04:24:12.898Z,6.72
2017-04-24T04:25:11.468Z,7.38
2017-04-24T04:26:10.137Z,7.53
2017-04-24T04:27:08.677Z,7.13
2017-04-24T04:28:07.258Z,7.77
2017-04-24T04:29:05.827Z,8.43
2017-04-24T04:30:04.745Z,8.13
2017-04-24T04:31:03.274Z,8.20
2017-04-24T04:32:01.829Z,11.38
2017-04-24T04:33:00.805Z,10.97
2017-04-24T04:33:59.349Z,10.18
2017-04-24T04:34:57.910Z,10.48
2017-04-24T04:35:56.824Z,9.85
2017-04-24T04:36:55.409Z,9.73
2017-04-24T04:37:54.350Z,10.42
2017-04-24T04:38:52.878Z,11.97
2017-04-24T04:39:51.461Z,17.57
2017-04-24T04:40:50.016Z,17.60
2017-04-24T04:41:48.830Z,16.90
2017-04-24T04:42:47.395Z,15.65
2017-04-24T04:43:46.344Z,13.02
2017-04-24T04:44:44.894Z,15.18
2017-04-24T04:45:43.486Z,14.65
2017-04-24T04:46:42.020Z,16.52
2017-04-24T04:47:40.869Z,16.40
2017-04-24T04:48:39.545Z,18.93
2017-04-24T04:49:38.106Z,23.63
2017-04-24T04:50:36.645Z,28.67
2017-04-24T04:51:35.714Z,30.27
2017-04-24T04:52:34.243Z,29.42
2017-04-24T04:53:33.114Z,27.63
2017-04-24T04:54:31.693Z,25.28
2017-04-24T04:55:30.349Z,18.33
2017-04-24T04:56:28.918Z,13.77
2017-04-24T04:57:27.468Z,11.33
2017-04-24T04:58:26.462Z,12.45
2017-04-24T04:59:25.031Z,10.90
2017-04-24T05:00:23.612Z,10.68
2017-04-24T05:01:22.192Z,11.58
2017-04-24T05:02:20.959Z,11.93
2017-04-24T05:03:19.515Z,9.25
2017-04-24T05:04:18.315Z,8.68
2017-04-24T05:05:17.265Z,8.88
2017-04-24T05:06:15.930Z,9.02
2017-04-24T05:07:14.441Z,7.90
2017-04-24T05:08:12.937Z,8.75
2017-04-24T05:09:11.539Z,7.88
2017-04-24T05:10:10.278Z,8.40
2017-04-24T05:11:08.771Z,8.47
2017-04-24T05:12:07.315Z,8.97
2017-04-24T05:13:05.844Z,8.13
2017-04-24T05:14:04.404Z,8.18
2017-04-24T05:15:02.952Z,8.57
2017-04-24T05:16:01.730Z,8.83
2017-04-24T05:17:00.285Z,8.38
2017-04-24T05:17:58.800Z,8.77
2017-04-24T05:18:57.317Z,9.82
2017-04-24T05:19:55.831Z,8.50
2017-04-24T05:20:54.386Z,8.82
2017-04-24T05:21:53.224Z,8.57
2017-04-24T05:22:51.757Z,9.07
2017-04-24T05:23:50.280Z,9.40
2017-04-24T05:24:48.801Z,9.22
2017-04-24T05:25:47.329Z,10.17
2017-04-24T05:26:45.983Z,9.45
2017-04-24T05:27:45.264Z,9.98
2017-04-24T05:28:43.766Z,9.17
2017-04-24T05:29:42.262Z,10.60
2017-04-24T05:30:40.808Z,11.32
2017-04-24T05:31:39.448Z,10.03
2017-04-24T05:32:38.074Z,10.55
2017-04-24T05:33:36.785Z,10.00
2017-04-24T05:34:35.696Z,10.00
2017-04-24T05:35:34.250Z,11.95
2017-04-24T05:36:32.753Z,9.57
2017-04-24T05:37:31.269Z,10.17
2017-04-24T05:38:30.192Z,9.83
2017-04-24T05:39:29.354Z,9.87
2017-04-24T05:40:27.963Z,9.42
2017-04-24T05:41:26.554Z,9.80
2017-04-24T05:42:25.053Z,9.27
2017-04-24T05:43:23.621Z,10.80
2017-04-24T05:44:22.220Z,9.38
2017-04-24T05:45:21.132Z,9.52
2017-04-24T05:46:19.664Z,9.95
2017-04-24T05:47:18.183Z,10.50
2017-04-24T05:48:16.676Z,9.78
2017-04-24T05:49:15.172Z,9.35
2017-04-24T05:50:13.772Z,10.42
2017-04-24T05:51:12.584Z,12.50
2017-04-24T05:52:11.111Z,10.32
2017-04-24T05:53:09.612Z,11.17
2017-04-24T05:54:08.509Z,11.00
2017-04-24T05:55:07.006Z,11.10
2017-04-24T05:56:05.553Z,12.72
2017-04-24T05:57:04.377Z,11.52
2017-04-24T05:58:02.941Z,11.00
2017-04-24T05:59:01.490Z,11.73
2017-04-24T06:00:00.422Z,12.43
2017-04-24T06:00:59.438Z,11.13
2017-04-24T06:01:57.988Z,11.12
2017-04-24T06:02:56.785Z,11.52
2017-04-24T06:03:55.326Z,10.70
2017-04-24T06:04:54.559Z,10.50
2017-04-24T06:05:53.129Z,13.12
2017-04-24T06:06:51.662Z,12.03
2017-04-24T06:07:50.173Z,11.65
2017-04-24T06:08:48.980Z,11.47
2017-04-24T06:09:47.637Z,11.97
2017-04-24T06:10:46.187Z,11.43
2017-04-24T06:11:44.748Z,11.70
2017-04-24T06:12:43.709Z,10.88
2017-04-24T06:13:42.222Z,12.13
2017-04-24T06:14:41.008Z,11.15
2017-04-24T06:15:40.003Z,10.72
2017-04-24T06:16:38.968Z,11.35
2017-04-24T06:17:37.527Z,11.33
2017-04-24T06:18:36.646Z,11.33
2017-04-24T06:19:35.199Z,12.77
2017-04-24T06:20:34.285Z,12.33
2017-04-24T06:21:32.770Z,11.78
2017-04-24T06:22:31.314Z,12.38
2017-04-24T06:23:29.829Z,12.15
2017-04-24T06:24:28.796Z,12.28
2017-04-24T06:25:27.310Z,13.08
2017-04-24T06:26:25.994Z,12.23
2017-04-24T06:27:24.520Z,12.50
2017-04-24T06:28:23.440Z,12.25
2017-04-24T06:29:22.042Z,12.75
2017-04-24T06:30:20.626Z,12.05
2017-04-24T06:31:19.544Z,11.68
2017-04-24T06:32:18.092Z,12.05
2017-04-24T06:33:16.755Z,12.50
2017-04-24T06:34:15.361Z,12.78
2017-04-24T06:35:13.910Z,13.43
2017-04-24T06:36:12.511Z,12.80
2017-04-24T06:37:11.024Z,12.07
2017-04-24T06:38:10.464Z,13.92
2017-04-24T06:39:08.990Z,13.33
2017-04-24T06:40:07.514Z,12.08
2017-04-24T06:41:06.084Z,12.17
2017-04-24T06:42:04.623Z,12.55
2017-04-24T06:43:03.156Z,12.13
2017-04-24T06:44:01.776Z,13.43
2017-04-24T06:45:00.509Z,12.55
2017-04-24T06:45:59.049Z,12.50
2017-04-24T06:46:57.634Z,13.35
2017-04-24T06:47:56.532Z,13.13
2017-04-24T06:48:55.481Z,12.98
2017-04-24T06:49:54.686Z,14.03
2017-04-24T06:50:53.640Z,13.00
2017-04-24T06:51:52.655Z,12.92
2017-04-24T06:52:51.182Z,12.90
2017-04-24T06:53:49.744Z,13.20
2017-04-24T06:54:48.304Z,12.92
2017-04-24T06:55:47.169Z,12.58
2017-04-24T06:56:45.689Z,12.55
2017-04-24T06:57:44.225Z,12.38
2017-04-24T06:58:43.156Z,13.20
2017-04-24T06:59:42.415Z,12.57
2017-04-24T07:00:41.155Z,12.17
2017-04-24T07:01:40.027Z,12.70
2017-04-24T07:02:38.625Z,12.92
2017-04-24T07:03:37.314Z,13.30
2017-04-24T07:04:36.283Z,14.10
2017-04-24T07:05:46.682Z,13.73
2017-04-24T07:06:45.880Z,13.48
2017-04-24T07:07:52.699Z,14.23
2017-04-24T07:09:11.794Z,13.30
2017-04-24T07:10:10.331Z,12.43
2017-04-24T07:11:08.862Z,12.95
2017-04-24T07:12:07.957Z,12.78
2017-04-24T07:13:06.525Z,13.40
2017-04-24T07:14:05.102Z,13.70
2017-04-24T07:15:04.068Z,12.58
2017-04-24T07:16:03.104Z,12.12
2017-04-24T07:17:01.786Z,11.60
2017-04-24T07:18:00.541Z,13.25
2017-04-24T07:18:59.068Z,12.70
2017-04-24T07:19:59.577Z,13.12
2017-04-24T07:20:58.145Z,12.63
2017-04-24T07:21:56.731Z,12.05
2017-04-24T07:22:55.261Z,12.52
2017-04-24T07:23:54.433Z,12.30
2017-04-24T07:24:52.959Z,12.67
2017-04-24T07:25:51.736Z,12.68
2017-04-24T07:26:50.632Z,12.92
2017-04-24T07:27:49.175Z,11.38
2017-04-24T07:28:47.660Z,12.03
2017-04-24T07:29:46.456Z,12.72
2017-04-24T07:30:44.971Z,11.82
2017-04-24T07:31:43.509Z,12.05
2017-04-24T07:32:42.110Z,12.08
2017-04-24T07:33:40.680Z,10.98
2017-04-24T07:34:39.417Z,12.60
2017-04-24T07:35:38.462Z,11.07
2017-04-24T07:36:36.996Z,11.45
2017-04-24T07:37:35.523Z,11.12
2017-04-24T07:38:34.055Z,11.90
2017-04-24T07:39:32.569Z,11.85
2017-04-24T07:40:31.169Z,12.17
2017-04-24T07:41:29.945Z,11.33
2017-04-24T07:42:28.894Z,11.05
2017-04-24T07:43:27.427Z,11.08
2017-04-24T07:44:25.982Z,9.77
2017-04-24T07:45:24.523Z,10.18
2017-04-24T07:46:23.019Z,10.68
2017-04-24T07:47:21.860Z,10.57
2017-04-24T07:48:20.390Z,10.43
2017-04-24T07:49:19.077Z,10.28
2017-04-24T07:50:17.597Z,10.75
2017-04-24T07:51:16.601Z,10.33
2017-04-24T07:52:15.172Z,9.23
2017-04-24T07:53:14.156Z,8.45
2017-04-24T07:54:12.690Z,10.45
2017-04-24T07:55:11.228Z,8.97
2017-04-24T07:56:09.733Z,9.65
2017-04-24T07:57:08.401Z,9.50
2017-04-24T07:58:07.487Z,9.10
2017-04-24T07:59:06.357Z,8.30
2017-04-24T08:00:04.908Z,9.18
2017-04-24T08:01:03.446Z,9.72
2017-04-24T08:02:01.981Z,9.00
2017-04-24T08:03:00.879Z,9.02
2017-04-24T08:03:59.413Z,9.53
2017-04-24T08:04:58.379Z,9.17
2017-04-24T08:05:56.908Z,9.65
2017-04-24T08:06:55.481Z,8.90
2017-04-24T08:07:54.447Z,9.77
2017-04-24T08:08:52.956Z,8.48
2017-04-24T08:09:51.489Z,9.15
2017-04-24T08:10:50.302Z,7.42
2017-04-24T08:11:48.804Z,7.77
2017-04-24T08:12:47.311Z,8.03
2017-04-24T08:13:45.822Z,8.22
2017-04-24T08:14:44.332Z,7.50
2017-04-24T08:15:42.873Z,7.62
2017-04-24T08:16:41.711Z,8.57
2017-04-24T08:17:40.236Z,7.53
2017-04-24T08:18:39.162Z,8.13
2017-04-24T08:19:37.687Z,6.75
2017-04-24T08:20:36.211Z,8.27
2017-04-24T08:21:34.736Z,7.27
2017-04-24T08:22:33.516Z,8.63
2017-04-24T08:23:32.028Z,7.83
2017-04-24T08:24:30.511Z,7.90
2017-04-24T08:25:29.028Z,7.75
2017-04-24T08:26:27.584Z,7.32
2017-04-24T08:27:26.469Z,6.65
2017-04-24T08:28:25.252Z,7.65
2017-04-24T08:29:23.772Z,6.50
2017-04-24T08:30:22.770Z,6.48
2017-04-24T08:31:21.760Z,5.78
2017-04-24T08:32:22.524Z,6.38
2017-04-24T08:33:21.556Z,5.93
2017-04-24T08:34:20.789Z,6.35
2017-04-24T08:35:19.338Z,6.77
2017-04-24T08:36:18.254Z,6.17
2017-04-24T08:37:16.794Z,5.57
2017-04-24T08:38:15.348Z,6.77
2017-04-24T08:39:13.903Z,5.82
2017-04-24T08:40:12.675Z,5.43
2017-04-24T08:41:11.694Z,6.28
2017-04-24T08:42:10.593Z,6.48
2017-04-24T08:43:09.192Z,5.75
2017-04-24T08:44:07.714Z,5.83
2017-04-24T08:45:06.284Z,5.97
2017-04-24T08:46:04.810Z,5.83
2017-04-24T08:47:03.303Z,6.58
2017-04-24T08:48:01.785Z,6.02
2017-04-24T08:49:00.686Z,6.40
2017-04-24T08:49:59.189Z,6.23
2017-04-24T08:50:57.989Z,6.03
2017-04-24T08:51:56.500Z,5.53
2017-04-24T08:52:54.992Z,6.87
2017-04-24T08:53:53.501Z,6.53
2017-04-24T08:54:52.036Z,6.00
2017-04-24T08:55:50.563Z,6.37
2017-04-24T08:56:49.081Z,6.62
2017-04-24T08:57:47.610Z,5.33
2017-04-24T08:58:46.189Z,6.32
2017-04-24T08:59:44.681Z,6.38
2017-04-24T09:00:43.190Z,7.30
2017-04-24T09:01:44.069Z,6.13
2017-04-24T09:02:42.580Z,6.57
2017-04-24T09:03:41.157Z,6.47
2017-04-24T09:04:39.752Z,6.65
2017-04-24T09:05:38.338Z,6.98
2017-04-24T09:06:36.869Z,7.13
2017-04-24T09:07:35.401Z,6.63
2017-04-24T09:08:33.920Z,7.82
2017-04-24T09:09:32.452Z,6.98
2017-04-24T09:10:31.415Z,5.13
2017-04-24T09:11:29.939Z,7.30
2017-04-24T09:12:28.847Z,6.97
2017-04-24T09:13:27.657Z,6.00
2017-04-24T09:14:26.296Z,5.03
2017-04-24T09:15:24.919Z,5.38
2017-04-24T09:16:23.406Z,4.62
2017-04-24T09:17:21.925Z,5.00
2017-04-24T09:18:20.460Z,4.60
2017-04-24T09:19:19.473Z,5.00
2017-04-24T09:20:18.060Z,5.20
2017-04-24T09:21:16.585Z,4.53
2017-04-24T09:22:15.258Z,5.13
2017-04-24T09:23:13.941Z,4.15
2017-04-24T09:24:12.780Z,5.03
2017-04-24T09:25:11.308Z,5.02
2017-04-24T09:26:10.625Z,5.17
2017-04-24T09:27:09.235Z,4.72
2017-04-24T09:28:07.797Z,5.58
2017-04-24T09:29:06.376Z,5.27
2017-04-24T09:30:05.345Z,5.17
2017-04-24T09:31:04.465Z,4.75
2017-04-24T09:32:02.995Z,4.97
2017-04-24T09:33:01.536Z,5.73
2017-04-24T09:34:00.091Z,5.25
2017-04-24T09:34:59.741Z,3.98
2017-04-24T09:35:58.597Z,4.37
2017-04-24T09:36:57.150Z,4.07
2017-04-24T09:37:58.001Z,3.78
2017-04-24T09:38:58.913Z,4.22
2017-04-24T09:39:57.459Z,3.93
2017-04-24T09:40:56.089Z,4.33
2017-04-24T09:41:54.668Z,5.27
2017-04-24T09:42:53.601Z,4.87
2017-04-24T09:43:52.341Z,5.10
2017-04-24T09:44:50.954Z,5.58
2017-04-24T09:45:49.732Z,6.15
2017-04-24T09:46:48.608Z,4.52
2017-04-24T09:47:47.118Z,4.83
2017-04-24T09:48:45.664Z,4.50
2017-04-24T09:49:44.521Z,4.00
2017-04-24T09:50:43.288Z,4.10
2017-04-24T09:51:41.829Z,3.47
2017-04-24T09:52:40.469Z,3.78
2017-04-24T09:53:39.392Z,3.62
2017-04-24T09:54:38.430Z,3.18
2017-04-24T09:55:37.005Z,3.68
2017-04-24T09:56:35.621Z,3.77
2017-04-24T09:57:34.555Z,3.65
2017-04-24T09:58:33.084Z,3.88
2017-04-24T09:59:31.913Z,4.08
2017-04-24T10:00:30.428Z,4.50
2017-04-24T10:01:29.189Z,4.12
2017-04-24T10:02:28.117Z,4.25
2017-04-24T10:03:27.019Z,4.28
2017-04-24T10:04:25.565Z,4.42
2017-04-24T10:05:24.083Z,4.38
2017-04-24T10:06:22.613Z,4.07
2017-04-24T10:07:21.887Z,5.17
2017-04-24T10:08:20.764Z,4.70
2017-04-24T10:09:19.323Z,5.52
2017-04-24T10:10:17.997Z,5.62
2017-04-24T10:11:16.900Z,5.35
2017-04-24T10:12:15.433Z,5.63
2017-04-24T10:13:14.008Z,4.88
2017-04-24T10:14:12.512Z,5.30
2017-04-24T10:15:11.060Z,5.57
2017-04-24T10:16:09.560Z,5.63
2017-04-24T10:17:08.113Z,5.28
2017-04-24T10:18:06.891Z,5.15
2017-04-24T10:19:05.407Z,5.85
2017-04-24T10:20:04.007Z,5.53
2017-04-24T10:21:02.544Z,5.53
2017-04-24T10:22:01.028Z,5.77
2017-04-24T10:22:59.562Z,4.15
2017-04-24T10:23:58.110Z,5.00
2017-04-24T10:24:56.622Z,5.72
2017-04-24T10:25:55.276Z,6.25
2017-04-24T10:26:54.200Z,5.53
2017-04-24T10:27:52.757Z,5.27
2017-04-24T10:28:51.549Z,5.13
2017-04-24T10:29:50.497Z,5.13
2017-04-24T10:30:49.395Z,5.05
2017-04-24T10:31:47.925Z,6.27
2017-04-24T10:32:46.400Z,5.67
2017-04-24T10:33:46.620Z,5.83
2017-04-24T10:34:48.197Z,5.70
2017-04-24T10:35:48.900Z,5.35
2017-04-24T10:36:49.191Z,6.12
2017-04-24T10:37:51.802Z,5.92
2017-04-24T10:38:50.334Z,6.32
2017-04-24T10:39:49.117Z,5.20
2017-04-24T10:40:48.050Z,5.82
2017-04-24T10:41:46.559Z,5.82
2017-04-24T10:42:45.095Z,5.12
2017-04-24T10:43:43.620Z,5.47
2017-04-24T10:44:42.259Z,6.05
2017-04-24T10:45:41.186Z,4.72
2017-04-24T10:46:39.693Z,5.22
2017-04-24T10:47:38.192Z,6.28
2017-04-24T10:48:36.720Z,5.12
2017-04-24T10:49:35.634Z,5.08
2017-04-24T10:50:34.541Z,5.22
2017-04-24T10:51:33.144Z,5.37
2017-04-24T10:52:31.704Z,6.08
2017-04-24T10:53:30.234Z,6.10
2017-04-24T10:54:28.858Z,6.45
2017-04-24T10:55:27.397Z,6.28
2017-04-24T10:56:25.988Z,6.57
2017-04-24T10:57:24.584Z,6.60
2017-04-24T10:58:23.234Z,6.48
2017-04-24T10:59:21.772Z,6.32
2017-04-24T11:00:20.460Z,6.82
2017-04-24T11:01:19.045Z,5.65
2017-04-24T11:02:18.029Z,6.68
2017-04-24T11:03:17.254Z,5.58
2017-04-24T11:04:15.858Z,6.58
2017-04-24T11:05:14.489Z,6.72
2017-04-24T11:06:13.523Z,6.62
2017-04-24T11:07:12.037Z,6.60
2017-04-24T11:08:10.612Z,6.83
2017-04-24T11:09:09.107Z,5.58
2017-04-24T11:10:07.619Z,6.72
2017-04-24T11:11:06.686Z,6.62
2017-04-24T11:12:05.673Z,6.73
2017-04-24T11:13:04.219Z,6.33
2017-04-24T11:14:02.788Z,6.82
2017-04-24T11:15:01.796Z,7.92
2017-04-24T11:16:00.351Z,6.33
2017-04-24T11:16:59.239Z,7.15
2017-04-24T11:17:57.819Z,7.52
2017-04-24T11:18:56.618Z,7.23
2017-04-24T11:19:55.155Z,7.63
2017-04-24T11:20:53.661Z,7.73
2017-04-24T11:21:52.151Z,6.62
2017-04-24T11:22:50.676Z,6.90
2017-04-24T11:23:49.223Z,7.23
2017-04-24T11:24:47.801Z,6.23
2017-04-24T11:25:46.345Z,6.43
2017-04-24T11:26:44.837Z,7.58
2017-04-24T11:27:43.772Z,6.50
2017-04-24T11:28:42.306Z,6.18
2017-04-24T11:29:40.849Z,6.87
2017-04-24T11:30:39.371Z,6.32
2017-04-24T11:31:37.949Z,6.87
2017-04-24T11:32:36.520Z,7.20
2017-04-24T11:33:35.462Z,6.22
2017-04-24T11:34:34.392Z,7.57
2017-04-24T11:35:33.239Z,7.68
2017-04-24T11:36:32.179Z,7.73
2017-04-24T11:37:30.717Z,7.32
2017-04-24T11:38:29.225Z,6.90
2017-04-24T11:39:27.737Z,6.77
2017-04-24T11:40:26.508Z,7.15
2017-04-24T11:41:25.056Z,7.98
2017-04-24T11:42:23.587Z,7.80
2017-04-24T11:43:22.115Z,6.97
2017-04-24T11:44:20.655Z,7.48
2017-04-24T11:45:19.177Z,6.62
2017-04-24T11:46:17.718Z,7.78
2017-04-24T11:47:16.247Z,7.07
2017-04-24T11:48:14.840Z,7.13
2017-04-24T11:49:13.760Z,6.80
2017-04-24T11:50:12.327Z,7.07
2017-04-24T11:51:10.839Z,7.18
2017-04-24T11:52:09.636Z,7.40
2017-04-24T11:53:08.572Z,6.72
2017-04-24T11:54:07.116Z,7.05
2017-04-24T11:55:06.054Z,7.03
2017-04-24T11:56:04.714Z,7.12
2017-04-24T11:57:03.386Z,5.85
2017-04-24T11:58:02.032Z,6.20
2017-04-24T11:59:00.569Z,6.68
2017-04-24T11:59:59.088Z,6.00
2017-04-24T12:00:57.701Z,6.80
2017-04-24T12:01:56.270Z,6.68
2017-04-24T12:02:55.102Z,7.35
2017-04-24T12:03:53.673Z,6.28
2017-04-24T12:04:52.198Z,6.58
2017-04-24T12:05:51.194Z,6.85
2017-04-24T12:06:49.739Z,6.53
2017-04-24T12:07:48.296Z,5.52
2017-04-24T12:08:47.347Z,6.57
2017-04-24T12:09:45.934Z,6.55
2017-04-24T12:10:44.496Z,7.08
2017-04-24T12:11:43.055Z,6.00
2017-04-24T12:12:42.092Z,6.17
2017-04-24T12:13:41.313Z,6.05
2017-04-24T12:14:39.892Z,6.30
2017-04-24T12:15:38.493Z,6.48
2017-04-24T12:16:37.047Z,6.47
2017-04-24T12:17:35.672Z,8.05
2017-04-24T12:18:34.832Z,7.02
2017-04-24T12:19:33.839Z,7.17
2017-04-24T12:20:32.865Z,6.88
2017-04-24T12:21:31.879Z,6.87
2017-04-24T12:22:30.447Z,6.07
2017-04-24T12:23:28.944Z,6.53
2017-04-24T12:24:28.232Z,5.85
2017-04-24T12:25:26.788Z,5.80
2017-04-24T12:26:25.401Z,5.47
2017-04-24T12:27:24.335Z,5.57
2017-04-24T12:28:22.912Z,4.92
2017-04-24T12:29:21.920Z,4.55
2017-04-24T12:30:20.506Z,5.02
2017-04-24T12:31:19.102Z,4.90
2017-04-24T12:32:21.858Z,5.08
2017-04-24T12:33:20.528Z,5.32
2017-04-24T12:34:19.128Z,5.63
2017-04-24T12:35:18.029Z,5.10
2017-04-24T12:36:16.644Z,5.30
2017-04-24T12:37:15.297Z,4.53
2017-04-24T12:38:13.835Z,5.40
2017-04-24T12:39:12.404Z,4.98
2017-04-24T12:40:11.049Z,4.48
2017-04-24T12:41:09.895Z,5.70
2017-04-24T12:42:08.838Z,4.73
2017-04-24T12:43:07.437Z,5.48
2017-04-24T12:44:06.074Z,5.48
2017-04-24T12:45:04.757Z,5.48
2017-04-24T12:46:03.319Z,5.08
2017-04-24T12:47:02.479Z,5.60
2017-04-24T12:48:01.026Z,5.53
2017-04-24T12:48:59.635Z,5.32
2017-04-24T12:49:58.204Z,5.33
2017-04-24T12:50:57.089Z,5.00
2017-04-24T12:51:55.971Z,5.70
2017-04-24T12:52:54.595Z,5.70
2017-04-24T12:53:53.143Z,5.93
2017-04-24T12:54:51.753Z,5.97
2017-04-24T12:55:50.735Z,5.63